Time;durP1;ratioP1;P1;durP2;ratioP2;P2;SDS_P1;SDS_P2;PMS_P1;PMS_P2;Temp;Humidity;BMP_temperature;BMP_pressure;BME280_temperature;BME280_humidity;BME280_pressure;Samples;Min_cycle;Max_cycle;Signal;HPM_P1;HPM_P2
2021/04/22 00:02:31;;;;;;;15.30;11.75;;;;;;;13.20;100.00;101425.59;5034615;28;20037;-74
2021/04/22 00:05:29;;;;;;;17.40;13.00;;;;;;;13.24;100.00;101426.41;5035035;28;20037;-74
2021/04/22 00:08:15;;;;;;;17.58;13.05;;;;;;;13.41;100.00;101430.50;5035344;28;20053;-74
2021/04/22 00:11:02;;;;;;;18.42;12.20;;;;;;;13.21;100.00;101434.34;5034696;28;20484;-74
2021/04/22 00:13:48;;;;;;;15.48;10.63;;;;;;;12.88;100.00;101434.84;5034737;28;20136;-73
2021/04/22 00:16:34;;;;;;;12.30;9.50;;;;;;;12.73;100.00;101443.84;5033985;28;20026;-74
2021/04/22 00:19:20;;;;;;;11.45;8.85;;;;;;;12.52;100.00;101436.28;5035608;28;20033;-74
2021/04/22 00:22:05;;;;;;;11.80;9.50;;;;;;;12.37;100.00;101441.72;5033753;28;20026;-74
2021/04/22 00:24:51;;;;;;;11.63;9.40;;;;;;;12.42;100.00;101449.56;5019771;28;20030;-75
2021/04/22 00:27:37;;;;;;;11.18;8.98;;;;;;;12.52;100.00;101444.16;5019671;28;20395;-73
2021/04/22 00:30:23;;;;;;;10.52;8.45;;;;;;;12.65;100.00;101445.72;5035172;28;20029;-73
2021/04/22 00:33:13;;;;;;;10.25;8.38;;;;;;;12.36;100.00;101440.00;5033844;28;20116;-74
2021/04/22 00:35:59;;;;;;;8.85;7.75;;;;;;;12.46;100.00;101443.38;5033556;28;20021;-74
2021/04/22 00:38:44;;;;;;;10.18;8.38;;;;;;;12.28;100.00;101433.97;5032709;28;20032;-74
2021/04/22 00:41:30;;;;;;;9.10;7.60;;;;;;;12.49;100.00;101440.69;5019087;28;20052;-74
2021/04/22 00:44:16;;;;;;;12.20;8.02;;;;;;;12.27;100.00;101437.50;5035373;28;20036;-74
2021/04/22 00:47:02;;;;;;;10.80;7.85;;;;;;;12.54;100.00;101442.38;5033746;28;20045;-73
2021/04/22 00:49:48;;;;;;;9.60;7.95;;;;;;;12.25;100.00;101438.38;5020807;28;20021;-74
2021/04/22 00:52:35;;;;;;;9.52;8.23;;;;;;;12.43;100.00;101446.94;5033352;28;20032;-74
2021/04/22 00:55:21;;;;;;;11.88;8.50;;;;;;;12.62;100.00;101439.66;5035155;28;20052;-73
2021/04/22 00:58:08;;;;;;;11.63;8.35;;;;;;;12.25;100.00;101443.63;5021086;28;20403;-73
2021/04/22 01:00:58;;;;;;;9.73;8.10;;;;;;;12.49;100.00;101440.69;5035128;28;20398;-74
2021/04/22 01:03:44;;;;;;;9.02;7.70;;;;;;;12.26;100.00;101435.75;5020127;28;20359;-73
2021/04/22 01:06:31;;;;;;;10.70;8.50;;;;;;;12.53;100.00;101443.25;5007272;28;20060;-74
2021/04/22 01:09:17;;;;;;;11.25;8.50;;;;;;;12.61;100.00;101451.03;5034770;28;20477;-74
2021/04/22 01:12:04;;;;;;;13.10;8.88;;;;;;;12.70;100.00;101445.66;5033294;28;20116;-73
2021/04/22 01:14:49;;;;;;;11.10;8.32;;;;;;;12.66;100.00;101446.59;5034067;28;20041;-74
2021/04/22 01:17:36;;;;;;;11.77;8.90;;;;;;;12.41;100.00;101446.06;5033198;28;20036;-74
2021/04/22 01:20:28;;;;;;;10.05;8.35;;;;;;;12.36;100.00;101447.00;5034757;28;20057;-74
2021/04/22 01:23:14;;;;;;;11.98;8.52;;;;;;;12.15;100.00;101444.66;5033124;28;20022;-73
2021/04/22 01:26:00;;;;;;;10.35;8.23;;;;;;;12.57;100.00;101451.97;5034199;28;20048;-73
2021/04/22 01:28:46;;;;;;;10.70;8.13;;;;;;;11.93;100.00;101459.78;5032663;28;20033;-74
2021/04/22 01:31:32;;;;;;;10.63;8.60;;;;;;;11.94;100.00;101445.75;5034821;28;20144;-74
2021/04/22 01:34:17;;;;;;;11.50;8.98;;;;;;;12.11;100.00;101443.84;5018376;28;20032;-74
2021/04/22 01:37:03;;;;;;;10.70;9.05;;;;;;;12.23;100.00;101448.06;5033130;28;20044;-74
2021/04/22 01:39:49;;;;;;;10.55;8.35;;;;;;;12.18;100.00;101448.09;5033533;28;20044;-74
2021/04/22 01:42:35;;;;;;;12.05;8.82;;;;;;;12.22;100.00;101449.81;5033066;28;20521;-74
2021/04/22 01:45:21;;;;;;;10.15;8.52;;;;;;;12.41;100.00;101450.44;5032593;28;20044;-73
2021/04/22 01:48:08;;;;;;;10.02;8.60;;;;;;;12.55;100.00;101444.13;5034348;28;20089;-74
2021/04/22 01:50:54;;;;;;;10.20;7.78;;;;;;;12.34;100.00;101454.91;5037456;28;20033;-74
2021/04/22 01:53:40;;;;;;;11.20;9.05;;;;;;;12.57;100.00;101449.34;5038155;28;20055;-74
2021/04/22 01:56:26;;;;;;;11.43;8.68;;;;;;;12.28;100.00;101455.00;5038333;28;20032;-74
2021/04/22 01:59:11;;;;;;;11.73;8.43;;;;;;;12.08;100.00;101449.13;5038257;28;20033;-74
2021/04/22 02:01:57;;;;;;;10.32;8.38;;;;;;;12.13;100.00;101443.81;5023670;28;20343;-75
2021/04/22 02:04:44;;;;;;;12.05;9.07;;;;;;;12.14;100.00;101438.53;5037996;28;20021;-74
2021/04/22 02:07:30;;;;;;;11.93;8.90;;;;;;;12.30;100.00;101445.31;5022707;28;20026;-74
2021/04/22 02:10:16;;;;;;;11.70;8.27;;;;;;;12.25;100.00;101446.25;5037253;28;20083;-75
2021/04/22 02:13:03;;;;;;;11.90;9.00;;;;;;;12.50;100.00;101448.56;5037321;28;20543;-73
2021/04/22 02:15:49;;;;;;;10.35;8.75;;;;;;;12.27;100.00;101450.63;5037932;28;20033;-73
2021/04/22 02:18:35;;;;;;;10.68;8.77;;;;;;;12.37;100.00;101459.25;5035279;28;20044;-74
2021/04/22 02:21:21;;;;;;;10.52;8.77;;;;;;;11.87;100.00;101459.00;5022517;28;20021;-73
2021/04/22 02:24:07;;;;;;;11.05;9.32;;;;;;;11.77;100.00;101466.09;5037145;28;20457;-74
2021/04/22 02:26:53;;;;;;;11.18;8.98;;;;;;;12.04;100.00;101449.16;5037050;28;20029;-74
2021/04/22 02:29:39;;;;;;;11.27;8.70;;;;;;;12.27;100.00;101447.13;5022494;28;20021;-73
2021/04/22 02:32:25;;;;;;;11.52;8.82;;;;;;;12.34;100.00;101456.69;5037836;28;20057;-74
2021/04/22 02:35:13;;;;;;;10.80;8.55;;;;;;;12.53;100.00;101452.91;5036700;28;20098;-73
2021/04/22 02:38:00;;;;;;;10.30;8.43;;;;;;;12.09;100.00;101463.97;5037819;28;20036;-73
2021/04/22 02:40:47;;;;;;;10.63;8.40;;;;;;;11.86;100.00;101467.75;5036652;28;20021;-73
2021/04/22 02:43:34;;;;;;;11.35;9.27;;;;;;;12.00;100.00;101471.97;5035691;28;20022;-74
2021/04/22 02:46:20;;;;;;;10.75;8.77;;;;;;;12.17;100.00;101470.00;5037597;28;20501;-74
2021/04/22 02:49:06;;;;;;;12.93;9.43;;;;;;;12.07;100.00;101475.41;5035693;28;20057;-74
2021/04/22 02:51:51;;;;;;;12.85;9.48;;;;;;;11.86;100.00;101478.28;5022558;28;20098;-73
2021/04/22 02:54:37;;;;;;;10.88;9.05;;;;;;;12.19;100.00;101476.13;5035817;28;20029;-73
2021/04/22 02:57:23;;;;;;;12.43;9.00;;;;;;;11.89;100.00;101478.25;5036975;28;20029;-75
2021/04/22 03:00:13;;;;;;;12.38;9.63;;;;;;;12.08;100.00;101472.75;5035285;28;20458;-74
2021/04/22 03:02:59;;;;;;;15.10;9.73;;;;;;;12.01;100.00;101468.44;5037025;28;20029;-73
2021/04/22 03:05:45;;;;;;;14.20;10.75;;;;;;;11.64;100.00;101480.22;5035889;28;20374;-74
2021/04/22 03:08:30;;;;;;;12.60;10.23;;;;;;;11.89;100.00;101479.09;5035914;28;20017;-74
2021/04/22 03:11:16;;;;;;;16.95;10.30;;;;;;;11.97;100.00;101479.88;5035383;28;20033;-73
2021/04/22 03:14:02;;;;;;;16.65;10.10;;;;;;;11.92;100.00;101486.06;5034670;28;20061;-74
2021/04/22 03:16:48;;;;;;;15.48;11.05;;;;;;;12.00;100.00;101473.72;5035886;28;20033;-73
2021/04/22 03:19:34;;;;;;;13.43;10.40;;;;;;;12.07;100.00;101476.28;5035570;28;20076;-74
2021/04/22 03:22:20;;;;;;;13.43;10.75;;;;;;;12.32;100.00;101482.97;5035348;28;20175;-73
2021/04/22 03:25:08;;;;;;;14.75;11.10;;;;;;;12.34;100.00;101481.19;5035036;28;20032;-73
2021/04/22 03:27:55;;;;;;;14.73;10.90;;;;;;;12.06;100.00;101487.66;5021242;28;20017;-73
2021/04/22 03:30:40;;;;;;;20.55;11.73;;;;;;;12.32;100.00;101489.97;5034611;28;20040;-73
2021/04/22 03:33:26;;;;;;;14.43;11.23;;;;;;;12.27;100.00;101497.06;5035371;28;20378;-74
2021/04/22 03:36:12;;;;;;;14.02;11.48;;;;;;;11.94;100.00;101492.19;5035125;28;20038;-74
2021/04/22 03:38:58;;;;;;;13.85;10.88;;;;;;;12.31;100.00;101494.38;5021000;28;20033;-74
2021/04/22 03:41:43;;;;;;;16.30;11.18;;;;;;;12.10;100.00;101493.75;5034711;28;20044;-74
2021/04/22 03:44:29;;;;;;;15.82;11.55;;;;;;;12.35;100.00;101503.09;5021185;28;20087;-76
2021/04/22 03:47:15;;;;;;;16.25;12.90;;;;;;;12.38;100.00;101503.06;5034973;28;20056;-74
2021/04/22 03:50:06;;;;;;;17.13;12.27;;;;;;;12.54;100.00;101510.72;5034927;28;20021;-73
2021/04/22 03:52:52;;;;;;;18.92;13.98;;;;;;;11.75;100.00;101516.88;5021250;28;20437;-72
2021/04/22 03:55:39;;;;;;;20.67;13.32;;;;;;;12.23;100.00;101513.75;5020928;28;20029;-73
2021/04/22 03:58:24;;;;;;;17.88;13.95;;;;;;;12.08;100.00;101525.28;5034291;28;20130;-74
2021/04/22 04:01:10;;;;;;;18.20;13.35;;;;;;;12.39;100.00;101524.06;5034140;28;20108;-74
2021/04/22 04:03:56;;;;;;;16.75;12.48;;;;;;;12.29;100.00;101530.28;5034540;28;20025;-73
2021/04/22 04:06:42;;;;;;;17.58;12.93;;;;;;;11.93;100.00;101532.47;5035213;28;20469;-74
2021/04/22 04:09:27;;;;;;;17.30;12.68;;;;;;;12.46;100.00;101530.13;5034094;28;20032;-73
2021/04/22 04:12:13;;;;;;;17.90;13.65;;;;;;;12.69;100.00;101528.91;5018856;28;20037;-74
2021/04/22 04:15:00;;;;;;;17.55;12.88;;;;;;;12.56;100.00;101531.72;5019859;28;20025;-74
2021/04/22 04:17:45;;;;;;;19.13;13.13;;;;;;;12.62;100.00;101535.13;5020463;28;20035;-73
2021/04/22 04:20:32;;;;;;;22.08;14.35;;;;;;;12.82;100.00;101534.91;5034484;28;20073;-74
2021/04/22 04:23:18;;;;;;;18.10;13.05;;;;;;;12.75;100.00;101531.50;5034963;28;20424;-75
2021/04/22 04:26:04;;;;;;;18.15;12.52;;;;;;;13.03;100.00;101539.88;5034101;28;20120;-75
2021/04/22 04:28:50;;;;;;;19.35;13.63;;;;;;;13.10;100.00;101546.81;5020354;28;20033;-73
2021/04/22 04:31:36;;;;;;;18.17;13.20;;;;;;;12.84;100.00;101541.00;5034263;28;20116;-73
2021/04/22 04:34:21;;;;;;;18.50;14.00;;;;;;;12.90;100.00;101548.81;5034166;28;20030;-75
2021/04/22 04:37:07;;;;;;;18.90;12.77;;;;;;;12.97;100.00;101547.81;5020969;28;20368;-73
2021/04/22 04:39:53;;;;;;;17.13;12.27;;;;;;;13.15;100.00;101551.06;5020295;28;20045;-74
2021/04/22 04:42:39;;;;;;;13.50;10.88;;;;;;;13.43;100.00;101556.81;5032847;28;20104;-74
2021/04/22 04:45:25;;;;;;;15.00;10.63;;;;;;;13.20;100.00;101551.03;5034017;28;20029;-74
2021/04/22 04:48:11;;;;;;;14.18;11.10;;;;;;;13.51;100.00;101553.16;5033318;28;20021;-74
2021/04/22 04:50:57;;;;;;;16.85;11.27;;;;;;;13.62;100.00;101552.97;5033546;28;20033;-73
2021/04/22 04:53:44;;;;;;;18.95;11.63;;;;;;;13.26;100.00;101551.81;5019800;28;20053;-73
2021/04/22 04:56:31;;;;;;;15.30;10.88;;;;;;;13.00;100.00;101555.69;5032977;28;20429;-73
2021/04/22 04:59:16;;;;;;;16.00;10.80;;;;;;;13.68;100.00;101558.16;5034124;28;20464;-73
2021/04/22 05:02:03;;;;;;;14.65;10.52;;;;;;;13.89;100.00;101558.66;5034279;28;20026;-74
2021/04/22 05:04:49;;;;;;;18.27;11.00;;;;;;;14.00;100.00;101561.97;5034090;28;20049;-73
2021/04/22 05:07:35;;;;;;;14.43;10.20;;;;;;;13.00;100.00;101553.97;5034623;28;20059;-72
2021/04/22 05:10:21;;;;;;;16.17;10.15;;;;;;;13.17;100.00;101557.22;5034071;28;20331;-72
2021/04/22 05:13:07;;;;;;;14.57;9.82;;;;;;;13.91;100.00;101562.13;5019367;28;20064;-74
2021/04/22 05:15:53;;;;;;;15.77;10.40;;;;;;;13.91;100.00;101554.22;5032702;28;20091;-73
2021/04/22 05:18:39;;;;;;;15.82;10.50;;;;;;;13.75;100.00;101555.38;5033764;28;20149;-73
2021/04/22 05:21:25;;;;;;;19.13;10.90;;;;;;;13.52;100.00;101557.53;5033658;28;20116;-73
2021/04/22 05:24:11;;;;;;;15.20;10.30;;;;;;;13.55;100.00;101559.25;5032515;28;20036;-74
2021/04/22 05:26:57;;;;;;;18.08;13.23;;;;;;;14.02;100.00;101567.19;5033778;28;20040;-73
2021/04/22 05:29:42;;;;;;;12.90;10.25;;;;;;;13.90;100.00;101572.69;5020610;28;20288;-73
2021/04/22 05:32:28;;;;;;;14.02;10.80;;;;;;;13.99;100.00;101568.13;5032764;28;20025;-73
2021/04/22 05:35:15;;;;;;;14.55;10.57;;;;;;;14.24;100.00;101574.72;5033327;28;20458;-73
2021/04/22 05:38:02;;;;;;;16.30;10.43;;;;;;;14.38;100.00;101570.06;5033970;28;20072;-75
2021/04/22 05:40:48;;;;;;;14.35;10.18;;;;;;;13.79;100.00;101575.50;5019072;28;20033;-74
2021/04/22 05:43:33;;;;;;;18.73;12.70;;;;;;;14.45;100.00;101584.00;5033370;28;20412;-74
2021/04/22 05:46:19;;;;;;;14.93;10.80;;;;;;;14.55;100.00;101586.41;5032985;28;20446;-73
2021/04/22 05:49:05;;;;;;;12.38;10.43;;;;;;;14.45;100.00;101586.63;5019731;28;20028;-74
2021/04/22 05:51:51;;;;;;;14.32;10.55;;;;;;;14.15;100.00;101589.81;5034035;28;20476;-73
2021/04/22 05:54:37;;;;;;;15.88;10.02;;;;;;;14.20;100.00;101594.06;5033509;28;20034;-73
2021/04/22 05:57:22;;;;;;;11.82;9.23;;;;;;;14.34;100.00;101581.56;5033425;28;20025;-75
2021/04/22 06:00:12;;;;;;;18.27;9.82;;;;;;;14.54;100.00;101586.44;5034130;28;20465;-74
2021/04/22 06:02:59;;;;;;;12.82;9.82;;;;;;;14.72;100.00;101586.94;5032857;28;20075;-74
2021/04/22 06:05:45;;;;;;;12.60;9.90;;;;;;;14.71;100.00;101590.47;5031869;28;20041;-74
2021/04/22 06:08:30;;;;;;;14.55;10.32;;;;;;;14.01;100.00;101597.09;5033165;28;20029;-73
2021/04/22 06:11:16;;;;;;;14.68;10.00;;;;;;;14.50;100.00;101598.81;5032557;28;20055;-73
2021/04/22 06:14:03;;;;;;;14.50;10.77;;;;;;;14.63;100.00;101597.69;5018863;28;20069;-74
2021/04/22 06:16:48;;;;;;;14.90;10.77;;;;;;;15.00;100.00;101596.91;5033144;28;20119;-74
2021/04/22 06:19:34;;;;;;;18.20;10.63;;;;;;;14.94;100.00;101595.28;5019600;28;20025;-74
2021/04/22 06:22:20;;;;;;;16.73;9.95;;;;;;;15.20;100.00;101603.50;5033831;28;20458;-73
2021/04/22 06:25:07;;;;;;;16.45;10.20;;;;;;;15.08;100.00;101608.19;5032686;28;20107;-74
2021/04/22 06:27:53;;;;;;;20.60;10.82;;;;;;;15.52;100.00;101602.78;5032715;28;20022;-73
2021/04/22 06:30:39;;;;;;;17.80;9.73;;;;;;;15.60;100.00;101598.19;5034687;28;20033;-74
2021/04/22 06:33:24;;;;;;;16.40;9.75;;;;;;;15.16;100.00;101599.19;5032606;28;20370;-72
2021/04/22 06:36:27;;;;;;;10.75;8.82;;;;;;;15.13;100.00;101607.19;5036435;28;20033;-73
2021/04/22 06:39:14;;;;;;;11.57;8.57;;;;;;;15.56;100.00;101604.47;5022532;28;20058;-74
2021/04/22 06:42:02;;;;;;;11.45;9.00;;;;;;;15.74;100.00;101604.00;5036322;28;20041;-73
2021/04/22 06:44:49;;;;;;;10.38;8.70;;;;;;;15.96;100.00;101608.75;5038051;28;20458;-73
2021/04/22 06:47:35;;;;;;;11.75;8.15;;;;;;;16.17;100.00;101600.25;5038216;28;20390;-73
2021/04/22 06:50:23;;;;;;;12.25;8.52;;;;;;;16.68;100.00;101611.22;5036594;28;20204;-73
2021/04/22 06:53:10;;;;;;;11.73;8.35;;;;;;;15.66;100.00;101603.31;5024435;28;20032;-73
2021/04/22 06:55:55;;;;;;;13.27;8.55;;;;;;;16.06;100.00;101606.72;5037873;28;20033;-74
2021/04/22 06:58:41;;;;;;;13.13;9.35;;;;;;;16.20;100.00;101617.81;5036223;28;20044;-74
2021/04/22 07:01:27;;;;;;;11.75;8.77;;;;;;;15.98;100.00;101617.50;5037253;28;20025;-73
2021/04/22 07:04:13;;;;;;;12.82;9.02;;;;;;;16.19;100.00;101619.56;5022533;28;20365;-73
2021/04/22 07:06:59;;;;;;;11.13;8.23;;;;;;;16.51;100.00;101608.19;5036585;28;20041;-73
2021/04/22 07:09:45;;;;;;;11.27;8.82;;;;;;;16.38;100.00;101612.91;5036422;28;20452;-73
2021/04/22 07:12:31;;;;;;;11.68;8.60;;;;;;;17.10;100.00;101610.84;5035479;28;20513;-74
2021/04/22 07:15:26;;;;;;;10.65;7.85;;;;;;;16.71;98.94;101611.13;5035716;28;20108;-75
2021/04/22 07:18:12;;;;;;;11.02;9.23;;;;;;;17.54;95.94;101613.03;5035610;28;20339;-73
2021/04/22 07:20:58;;;;;;;11.10;8.90;;;;;;;17.89;94.43;101617.19;5035491;28;20017;-74
2021/04/22 07:23:44;;;;;;;11.10;8.30;;;;;;;17.85;92.05;101613.75;5036136;28;20029;-74
2021/04/22 07:26:30;;;;;;;9.60;8.00;;;;;;;17.32;97.36;101606.63;5035814;28;20029;-73
2021/04/22 07:29:16;;;;;;;10.48;8.32;;;;;;;17.73;95.34;101611.50;5035675;28;20025;-74
2021/04/22 07:32:02;;;;;;;10.57;7.80;;;;;;;17.86;93.22;101609.31;5035123;28;20117;-74
2021/04/22 07:34:48;;;;;;;9.77;8.25;;;;;;;18.07;90.93;101613.91;5036209;28;20113;-74
2021/04/22 07:37:34;;;;;;;9.32;7.75;;;;;;;18.04;91.48;101614.00;5021920;28;20064;-74
2021/04/22 07:40:23;;;;;;;8.73;7.80;;;;;;;18.14;93.78;101615.44;5020625;28;20041;-73
2021/04/22 07:43:10;;;;;;;8.60;7.70;;;;;;;17.94;94.53;101615.25;5008418;28;20026;-73
2021/04/22 07:45:56;;;;;;;8.90;7.68;;;;;;;18.34;92.69;101602.38;5034247;28;20033;-74
2021/04/22 07:48:42;;;;;;;8.98;7.18;;;;;;;18.44;92.75;101603.78;5021845;28;20025;-72
2021/04/22 07:51:27;;;;;;;9.48;7.57;;;;;;;18.90;91.83;101609.16;5036147;28;20057;-74
2021/04/22 07:54:13;;;;;;;8.38;7.43;;;;;;;19.46;87.68;101613.19;5034347;28;20057;-73
2021/04/22 07:56:59;;;;;;;8.40;7.50;;;;;;;18.98;88.93;101612.38;5036088;28;20041;-74
2021/04/22 07:59:45;;;;;;;7.85;6.35;;;;;;;19.25;85.23;101607.84;5034491;28;20466;-74
2021/04/22 08:02:30;;;;;;;6.57;5.88;;;;;;;19.03;80.60;101611.28;5033948;28;20022;-74
2021/04/22 08:05:19;;;;;;;7.63;6.60;;;;;;;18.58;84.22;101617.44;5033665;28;20025;-74
2021/04/22 08:08:07;;;;;;;6.90;5.88;;;;;;;19.08;84.46;101614.63;5033761;28;20048;-74
2021/04/22 08:10:55;;;;;;;7.25;5.90;;;;;;;19.57;80.37;101621.56;5021747;28;20037;-73
2021/04/22 08:13:41;;;;;;;7.47;6.20;;;;;;;19.96;76.68;101617.31;5034450;28;20083;-74
2021/04/22 08:16:27;;;;;;;6.43;5.75;;;;;;;20.28;72.90;101627.47;5035463;28;20033;-74
2021/04/22 08:19:13;;;;;;;6.15;5.35;;;;;;;20.39;67.15;101614.59;5033669;28;20060;-74
2021/04/22 08:22:02;;;;;;;7.45;5.50;;;;;;;19.94;67.27;101623.63;5019374;28;20091;-74
2021/04/22 08:24:48;;;;;;;6.60;5.45;;;;;;;20.53;63.97;101620.16;5033966;28;20112;-74
2021/04/22 08:27:34;;;;;;;7.97;5.32;;;;;;;20.63;63.17;101620.63;5019206;28;20527;-74
2021/04/22 08:30:23;;;;;;;6.53;5.25;;;;;;;20.16;66.44;101636.00;5034506;28;20032;-74
2021/04/22 08:33:10;;;;;;;5.70;5.10;;;;;;;20.58;63.29;101631.47;5035387;28;20029;-73
2021/04/22 08:35:56;;;;;;;5.65;5.00;;;;;;;21.02;60.31;101625.03;5034735;28;20112;-74
2021/04/22 08:38:42;;;;;;;10.23;5.68;;;;;;;21.13;62.54;101630.75;5034931;28;20068;-74
2021/04/22 08:41:28;;;;;;;6.65;5.85;;;;;;;21.53;60.51;101637.72;5034656;28;20461;-74
2021/04/22 08:44:14;;;;;;;7.28;6.47;;;;;;;21.33;60.87;101635.13;5034951;28;20450;-74
2021/04/22 08:47:00;;;;;;;7.63;5.75;;;;;;;21.29;60.97;101633.53;5020401;28;20098;-74
2021/04/22 08:49:47;;;;;;;6.60;5.90;;;;;;;20.81;64.56;101622.47;5021166;28;20178;-73
2021/04/22 08:52:35;;;;;;;6.07;5.47;;;;;;;21.59;58.93;101627.66;5033619;28;20029;-75
2021/04/22 08:55:25;;;;;;;9.25;6.32;;;;;;;21.30;60.76;101628.16;5021250;28;20022;-73
2021/04/22 08:58:11;;;;;;;8.50;5.90;;;;;;;21.75;59.46;101622.44;5034557;28;20026;-74
2021/04/22 09:01:07;;;;;;;8.60;6.75;;;;;;;21.50;59.19;101622.72;5020924;28;20036;-74
2021/04/22 09:03:53;;;;;;;9.63;6.45;;;;;;;21.34;59.85;101623.56;5034607;28;20025;-74
2021/04/22 09:06:39;;;;;;;9.55;6.22;;;;;;;22.01;59.89;101614.88;5019486;28;20029;-74
2021/04/22 09:09:27;;;;;;;8.32;6.40;;;;;;;22.42;57.79;101608.28;5034233;28;20035;-74
2021/04/22 09:12:33;;;;;;;8.45;6.13;;;;;;;22.52;58.02;101603.34;5020589;28;20025;-74
2021/04/22 09:15:19;;;;;;;6.60;5.90;;;;;;;22.16;56.57;101614.09;5021034;28;20025;-74
2021/04/22 09:18:08;;;;;;;8.00;6.40;;;;;;;21.85;59.33;101611.25;5033020;28;20044;-73
2021/04/22 09:20:56;;;;;;;6.70;5.85;;;;;;;21.72;58.90;101612.78;5019940;28;20086;-74
2021/04/22 09:23:57;;;;;;;8.43;6.70;;;;;;;21.33;61.79;101601.34;5033760;28;20036;-74
2021/04/22 09:26:50;;;;;;;8.45;6.93;;;;;;;20.96;61.98;101601.34;5034028;28;20032;-74
2021/04/22 09:29:40;;;;;;;8.00;5.70;;;;;;;21.07;60.19;101604.38;5033615;28;20025;-74
2021/04/22 09:32:28;;;;;;;7.43;6.00;;;;;;;21.45;58.69;101598.09;5034042;28;20044;-74
2021/04/22 09:35:15;;;;;;;8.48;6.15;;;;;;;21.04;54.99;101598.31;5033587;28;20038;-74
2021/04/22 09:38:01;;;;;;;7.53;6.70;;;;;;;20.85;61.15;101600.94;5020367;28;20037;-73
2021/04/22 09:40:48;;;;;;;8.27;6.93;;;;;;;20.78;64.72;101594.16;5019689;28;20029;-73
2021/04/22 09:43:34;;;;;;;7.35;5.90;;;;;;;20.83;62.64;101586.84;5034404;28;20030;-74
2021/04/22 09:46:21;;;;;;;8.30;6.30;;;;;;;20.53;65.21;101584.69;5033863;28;20033;-74
2021/04/22 09:49:14;;;;;;;6.95;5.65;;;;;;;20.69;66.01;101591.91;5032989;28;20021;-74
2021/04/22 09:52:08;;;;;;;8.25;6.57;;;;;;;21.05;66.35;101590.25;5034176;28;20100;-74
2021/04/22 09:54:54;;;;;;;8.45;7.07;;;;;;;21.01;64.44;101582.50;5032935;28;20445;-74
2021/04/22 09:57:42;;;;;;;6.70;6.00;;;;;;;21.21;64.07;101579.72;5031700;28;20032;-72
2021/04/22 10:00:31;;;;;;;8.45;6.22;;;;;;;20.89;65.76;101580.38;5018641;28;20037;-74
2021/04/22 10:03:18;;;;;;;6.68;5.82;;;;;;;20.90;68.92;101579.44;5032628;28;20429;-74
2021/04/22 10:06:04;;;;;;;7.78;6.50;;;;;;;21.53;67.35;101577.25;5032345;28;20072;-74
2021/04/22 10:08:50;;;;;;;7.50;6.03;;;;;;;21.30;66.22;101581.97;5030699;28;20026;-74
2021/04/22 10:11:49;;;;;;;8.00;5.93;;;;;;;21.53;63.27;101579.91;5034783;28;20025;-74
2021/04/22 10:14:37;;;;;;;6.75;5.90;;;;;;;21.10;65.79;101580.25;5036615;28;20064;-74
2021/04/22 10:17:25;;;;;;;6.43;5.72;;;;;;;21.40;63.42;101583.25;5037393;28;20049;-74
2021/04/22 10:20:12;;;;;;;7.35;5.55;;;;;;;21.26;61.27;101578.56;5036621;28;20466;-73
2021/04/22 10:22:59;;;;;;;9.20;6.05;;;;;;;21.72;60.09;101577.25;5037774;28;20025;-74
2021/04/22 10:25:45;;;;;;;10.57;5.82;;;;;;;21.07;62.05;101579.53;5037422;28;20365;-73
2021/04/22 10:28:30;;;;;;;6.65;6.00;;;;;;;21.42;62.76;101576.06;5037215;28;20014;-73
2021/04/22 10:31:16;;;;;;;6.20;5.57;;;;;;;21.58;60.75;101577.88;5036437;28;20030;-73
2021/04/22 10:34:03;;;;;;;7.45;5.43;;;;;;;21.46;60.79;101566.97;5037501;28;20048;-74
2021/04/22 10:36:51;;;;;;;7.18;6.10;;;;;;;21.35;58.87;101567.50;5036475;28;20021;-74
2021/04/22 10:39:38;;;;;;;6.60;5.55;;;;;;;21.69;57.73;101566.69;5036649;28;20068;-74
2021/04/22 10:42:24;;;;;;;6.65;5.95;;;;;;;22.11;54.75;101562.72;5036490;28;20037;-74
2021/04/22 10:45:16;;;;;;;8.00;5.80;;;;;;;21.99;53.68;101558.03;5037401;28;20061;-75
2021/04/22 10:48:02;;;;;;;6.60;5.63;;;;;;;22.24;57.03;101561.19;5035742;28;20052;-73
2021/04/22 10:50:51;;;;;;;6.65;5.50;;;;;;;21.65;54.80;101555.31;5023471;28;20029;-74
2021/04/22 10:53:39;;;;;;;7.53;5.88;;;;;;;22.15;54.85;101556.28;5036537;28;20113;-73
2021/04/22 10:56:27;;;;;;;7.30;5.45;;;;;;;21.62;55.44;101558.13;5037101;28;20091;-74
2021/04/22 10:59:21;;;;;;;6.28;5.25;;;;;;;21.86;53.79;101551.59;5036243;28;20025;-74
2021/04/22 11:02:18;;;;;;;7.70;5.35;;;;;;;21.99;51.77;101552.69;5036444;28;20115;-73
2021/04/22 11:05:04;;;;;;;5.45;4.90;;;;;;;22.05;49.58;101546.16;5036304;28;20365;-73
2021/04/22 11:08:08;;;;;;;6.10;4.78;;;;;;;22.06;47.95;101539.91;5035759;28;20025;-73
2021/04/22 11:10:55;;;;;;;5.45;4.80;;;;;;;21.84;48.66;101528.59;5036494;28;20162;-74
2021/04/22 11:13:42;;;;;;;5.22;4.50;;;;;;;22.64;45.37;101533.25;5035351;28;20064;-74
2021/04/22 11:16:30;;;;;;;9.50;4.63;;;;;;;22.43;44.15;101531.69;5036498;28;20400;-73
2021/04/22 11:19:24;;;;;;;8.07;5.05;;;;;;;22.49;44.61;101536.72;5035291;28;20032;-74
2021/04/22 11:22:14;;;;;;;5.68;5.05;;;;;;;23.02;43.62;101522.16;5035867;28;20374;-74
2021/04/22 11:25:03;;;;;;;5.43;4.90;;;;;;;23.01;43.26;101527.59;5035107;28;20017;-74
2021/04/22 11:27:56;;;;;;;5.50;4.55;;;;;;;22.77;43.25;101520.94;5035998;28;20104;-74
2021/04/22 11:30:42;;;;;;;6.72;4.43;;;;;;;22.56;43.68;101514.97;5035000;28;20029;-74
2021/04/22 11:33:28;;;;;;;6.57;5.20;;;;;;;22.62;44.19;101511.94;5035317;28;20029;-74
2021/04/22 11:36:16;;;;;;;5.93;4.90;;;;;;;23.11;44.52;101520.81;5036507;28;20132;-73
2021/04/22 11:39:06;;;;;;;6.32;5.03;;;;;;;22.37;44.35;101508.84;5035042;28;20034;-74
2021/04/22 11:41:59;;;;;;;6.35;4.80;;;;;;;23.60;44.15;101503.69;5036069;28;20469;-74
2021/04/22 11:44:51;;;;;;;6.78;4.85;;;;;;;22.54;44.44;101506.16;5034315;28;20029;-73
2021/04/22 11:47:48;;;;;;;6.25;5.15;;;;;;;22.72;43.34;101507.84;5035941;28;20424;-74
2021/04/22 11:50:43;;;;;;;5.47;4.43;;;;;;;22.51;43.91;101494.78;5036434;28;20045;-74
2021/04/22 11:53:40;;;;;;;6.13;5.05;;;;;;;22.53;44.58;101499.09;5035893;28;20021;-74
2021/04/22 11:56:28;;;;;;;6.00;4.57;;;;;;;21.82;44.96;101499.31;5035628;28;20036;-74
2021/04/22 11:59:16;;;;;;;5.72;4.68;;;;;;;22.06;46.23;101494.53;5035359;28;20040;-74
2021/04/22 12:02:13;;;;;;;6.90;5.53;;;;;;;22.33;45.30;101495.72;5035398;28;20442;-74
2021/04/22 12:05:01;;;;;;;11.20;6.00;;;;;;;22.62;45.44;101500.38;5035948;28;20496;-74
2021/04/22 12:08:01;;;;;;;10.07;7.35;;;;;;;23.09;42.68;101494.16;5036030;28;20025;-73
2021/04/22 12:10:49;;;;;;;31.27;18.95;;;;;;;22.94;41.30;101491.44;5034459;28;20065;-73
2021/04/22 12:13:35;;;;;;;4.70;4.20;;;;;;;22.23;41.43;101487.34;5035072;28;20378;-73
2021/04/22 12:16:21;;;;;;;5.30;4.50;;;;;;;22.81;40.89;101482.41;5034447;28;20026;-73
2021/04/22 12:19:07;;;;;;;5.00;4.28;;;;;;;22.99;42.59;101487.56;5034965;28;20021;-73
2021/04/22 12:21:54;;;;;;;6.47;4.40;;;;;;;22.84;41.51;101484.91;5034316;28;20036;-73
2021/04/22 12:24:50;;;;;;;8.10;4.78;;;;;;;23.19;41.66;101481.13;5034890;28;20025;-74
2021/04/22 12:27:38;;;;;;;4.57;4.05;;;;;;;23.25;39.84;101484.34;5034928;28;20055;-73
2021/04/22 12:30:24;;;;;;;4.35;3.92;;;;;;;23.31;38.73;101472.41;5034683;28;20121;-74
2021/04/22 12:33:17;;;;;;;6.72;4.28;;;;;;;23.36;39.01;101481.88;5034531;28;20625;-73
2021/04/22 12:36:03;;;;;;;4.97;4.20;;;;;;;23.08;39.14;101475.50;5035705;28;20033;-74
2021/04/22 12:38:49;;;;;;;4.43;4.00;;;;;;;22.70;39.87;101466.97;5034634;28;20342;-73
2021/04/22 12:41:35;;;;;;;6.82;4.78;;;;;;;22.73;39.89;101464.13;5035780;28;20087;-74
2021/04/22 12:44:21;;;;;;;4.90;4.35;;;;;;;23.00;39.20;101457.25;5033943;28;20033;-73
2021/04/22 12:47:09;;;;;;;6.45;4.30;;;;;;;23.26;39.00;101464.66;5034576;28;20026;-73